sensor_id;sensor_type;location;lat;lon;timestamp;pressure;altitude;pressure_sealevel;temperature;humidity
73341;BME280;61578;52.002;5.468;2022-12-07T00:00:20;101822.59;;;3.37;93.27
73341;BME280;61578;52.002;5.468;2022-12-07T00:01:11;101817.41;;;3.36;93.59
73341;BME280;61578;52.002;5.468;2022-12-07T00:01:46;101819.19;;;3.33;93.68
73341;BME280;61578;52.002;5.468;2022-12-07T00:02:17;101816.59;;;3.32;93.35
73341;BME280;61578;52.002;5.468;2022-12-07T00:02:52;101819.25;;;3.30;93.21
73341;BME280;61578;52.002;5.468;2022-12-07T00:03:23;101822.75;;;3.29;92.80
73341;BME280;61578;52.002;5.468;2022-12-07T00:03:57;101816.69;;;3.26;93.03
73341;BME280;61578;52.002;5.468;2022-12-07T00:05:46;101809.84;;;3.17;93.12
73341;BME280;61578;52.002;5.468;2022-12-07T00:06:18;101821.19;;;3.19;92.93
73341;BME280;61578;52.002;5.468;2022-12-07T00:06:52;101811.59;;;3.18;93.35
73341;BME280;61578;52.002;5.468;2022-12-07T00:07:23;101820.34;;;3.17;93.47
73341;BME280;61578;52.002;5.468;2022-12-07T00:07:54;101822.97;;;3.17;93.47
73341;BME280;61578;52.002;5.468;2022-12-07T00:08:33;101806.50;;;3.09;93.80
73341;BME280;61578;52.002;5.468;2022-12-07T00:09:10;101810.84;;;3.10;93.25
73341;BME280;61578;52.002;5.468;2022-12-07T00:09:56;101811.72;;;3.11;93.18
73341;BME280;61578;52.002;5.468;2022-12-07T00:10:28;101814.38;;;3.09;93.24
73341;BME280;61578;52.002;5.468;2022-12-07T00:11:13;101827.47;;;3.11;93.41
73341;BME280;61578;52.002;5.468;2022-12-07T00:11:52;101823.97;;;3.10;93.21
73341;BME280;61578;52.002;5.468;2022-12-07T00:12:23;101824.88;;;3.09;93.69
73341;BME280;61578;52.002;5.468;2022-12-07T00:12:54;101824.88;;;3.09;93.40
73341;BME280;61578;52.002;5.468;2022-12-07T00:13:26;101827.50;;;3.08;93.37
73341;BME280;61578;52.002;5.468;2022-12-07T00:14:02;101775.53;;;2.82;93.29
73341;BME280;61578;52.002;5.468;2022-12-07T00:14:43;101774.66;;;2.81;93.97
73341;BME280;61578;52.002;5.468;2022-12-07T00:15:14;101796.19;;;3.00;94.45
73341;BME280;61578;52.002;5.468;2022-12-07T00:15:53;101814.34;;;3.12;94.14
73341;BME280;61578;52.002;5.468;2022-12-07T00:16:26;101818.72;;;3.10;93.64
73341;BME280;61578;52.002;5.468;2022-12-07T00:16:59;101815.22;;;3.11;93.78
73341;BME280;61578;52.002;5.468;2022-12-07T00:17:30;101818.59;;;3.16;94.19
73341;BME280;61578;52.002;5.468;2022-12-07T00:18:51;101809.84;;;3.17;94.31
73341;BME280;61578;52.002;5.468;2022-12-07T00:19:25;101807.19;;;3.19;94.23
73341;BME280;61578;52.002;5.468;2022-12-07T00:19:57;101821.13;;;3.24;94.10
73341;BME280;61578;52.002;5.468;2022-12-07T00:20:28;101815.06;;;3.20;94.02
73341;BME280;61578;52.002;5.468;2022-12-07T00:21:10;101811.59;;;3.18;93.68
73341;BME280;61578;52.002;5.468;2022-12-07T00:21:50;101810.63;;;3.24;93.82
73341;BME280;61578;52.002;5.468;2022-12-07T00:22:21;101809.78;;;3.22;93.87
73341;BME280;61578;52.002;5.468;2022-12-07T00:22:56;101816.63;;;3.29;94.50
73341;BME280;61578;52.002;5.468;2022-12-07T00:23:28;101811.41;;;3.27;94.31
73341;BME280;61578;52.002;5.468;2022-12-07T00:24:06;101812.22;;;3.31;93.75
73341;BME280;61578;52.002;5.468;2022-12-07T00:24:48;101817.47;;;3.32;93.98
73341;BME280;61578;52.002;5.468;2022-12-07T00:25:27;101816.56;;;3.33;93.71
73341;BME280;61578;52.002;5.468;2022-12-07T00:26:12;101812.97;;;3.38;94.27
73341;BME280;61578;52.002;5.468;2022-12-07T00:26:52;101811.13;;;3.43;94.92
73341;BME280;61578;52.002;5.468;2022-12-07T00:27:24;101807.63;;;3.44;94.56
73341;BME280;61578;52.002;5.468;2022-12-07T00:27:55;101763.44;;;3.21;94.32
73341;BME280;61578;52.002;5.468;2022-12-07T00:28:31;101808.41;;;3.47;94.65
73341;BME280;61578;52.002;5.468;2022-12-07T00:29:44;101801.44;;;3.46;94.14
73341;BME280;61578;52.002;5.468;2022-12-07T00:30:51;101812.78;;;3.47;93.97
73341;BME280;61578;52.002;5.468;2022-12-07T00:31:29;101811.03;;;3.47;94.45
73341;BME280;61578;52.002;5.468;2022-12-07T00:32:05;101798.88;;;3.43;94.49
73341;BME280;61578;52.002;5.468;2022-12-07T00:32:36;101807.47;;;3.51;94.54
73341;BME280;61578;52.002;5.468;2022-12-07T00:33:09;101810.13;;;3.50;93.79
73341;BME280;61578;52.002;5.468;2022-12-07T00:33:40;101806.66;;;3.48;93.94
73341;BME280;61578;52.002;5.468;2022-12-07T00:34:20;101807.47;;;3.51;93.93
73341;BME280;61578;52.002;5.468;2022-12-07T00:34:55;101823.19;;;3.53;94.10
73341;BME280;61578;52.002;5.468;2022-12-07T00:35:26;101810.03;;;3.54;94.43
73341;BME280;61578;52.002;5.468;2022-12-07T00:36:07;101818.78;;;3.55;93.58
73341;BME280;61578;52.002;5.468;2022-12-07T00:36:41;101800.50;;;3.49;93.86
73341;BME280;61578;52.002;5.468;2022-12-07T00:37:13;101806.56;;;3.52;94.10
73341;BME280;61578;52.002;5.468;2022-12-07T00:37:47;101806.53;;;3.55;93.93
73341;BME280;61578;52.002;5.468;2022-12-07T00:38:18;101808.19;;;3.58;94.14
73341;BME280;61578;52.002;5.468;2022-12-07T00:38:50;101797.81;;;3.53;93.98
73341;BME280;61578;52.002;5.468;2022-12-07T00:39:22;101803.84;;;3.57;93.56
73341;BME280;61578;52.002;5.468;2022-12-07T00:39:55;101797.72;;;3.56;93.49
73341;BME280;61578;52.002;5.468;2022-12-07T00:40:26;101798.69;;;3.52;93.36
73341;BME280;61578;52.002;5.468;2022-12-07T00:41:02;101755.44;;;3.27;93.20
73341;BME280;61578;52.002;5.468;2022-12-07T00:41:38;101793.53;;;3.46;93.45
73341;BME280;61578;52.002;5.468;2022-12-07T00:42:11;101805.72;;;3.52;93.44
73341;BME280;61578;52.002;5.468;2022-12-07T00:42:47;101810.97;;;3.52;93.33
73341;BME280;61578;52.002;5.468;2022-12-07T00:43:19;101794.38;;;3.48;93.56
73341;BME280;61578;52.002;5.468;2022-12-07T00:43:53;101797.91;;;3.47;93.53
73341;BME280;61578;52.002;5.468;2022-12-07T00:44:30;101790.19;;;3.40;93.05
73341;BME280;61578;52.002;5.468;2022-12-07T00:45:04;101804.91;;;3.47;92.87
73341;BME280;61578;52.002;5.468;2022-12-07T00:45:50;101744.34;;;3.13;93.36
73341;BME280;61578;52.002;5.468;2022-12-07T00:46:24;101798.00;;;3.44;93.27
73341;BME280;61578;52.002;5.468;2022-12-07T00:47:02;101794.69;;;3.35;92.82
73341;BME280;61578;52.002;5.468;2022-12-07T00:47:33;101799.84;;;3.38;92.21
73341;BME280;61578;52.002;5.468;2022-12-07T00:49:04;101801.69;;;3.34;93.62
73341;BME280;61578;52.002;5.468;2022-12-07T00:49:35;101802.63;;;3.30;93.36
73341;BME280;61578;52.002;5.468;2022-12-07T00:50:06;101710.75;;;2.85;93.65
73341;BME280;61578;52.002;5.468;2022-12-07T00:50:37;101806.03;;;3.35;93.55
73341;BME280;61578;52.002;5.468;2022-12-07T00:51:12;101800.84;;;3.32;93.71
73341;BME280;61578;52.002;5.468;2022-12-07T00:51:48;101751.50;;;3.05;93.51
73341;BME280;61578;52.002;5.468;2022-12-07T00:52:28;101811.31;;;3.33;93.29
73341;BME280;61578;52.002;5.468;2022-12-07T00:53:01;101793.88;;;3.29;93.40
73341;BME280;61578;52.002;5.468;2022-12-07T00:53:41;101797.34;;;3.31;93.58
73341;BME280;61578;52.002;5.468;2022-12-07T00:54:11;101754.06;;;3.06;93.70
73341;BME280;61578;52.002;5.468;2022-12-07T00:54:46;101798.19;;;3.33;93.85
73341;BME280;61578;52.002;5.468;2022-12-07T00:55:17;101786.03;;;3.28;93.72
73341;BME280;61578;52.002;5.468;2022-12-07T00:55:47;101748.03;;;3.04;93.51
73341;BME280;61578;52.002;5.468;2022-12-07T00:56:32;101790.41;;;3.27;93.20
73341;BME280;61578;52.002;5.468;2022-12-07T00:57:05;101735.00;;;2.98;93.58
73341;BME280;61578;52.002;5.468;2022-12-07T00:57:37;101791.22;;;3.31;93.46
73341;BME280;61578;52.002;5.468;2022-12-07T00:58:09;101788.69;;;3.26;93.28
73341;BME280;61578;52.002;5.468;2022-12-07T00:58:52;101735.06;;;2.95;93.07
73341;BME280;61578;52.002;5.468;2022-12-07T01:00:12;101782.69;;;3.20;92.98
73341;BME280;61578;52.002;5.468;2022-12-07T01:00:50;101785.28;;;3.21;93.10
73341;BME280;61578;52.002;5.468;2022-12-07T01:01:22;101779.25;;;3.16;93.08
73341;BME280;61578;52.002;5.468;2022-12-07T01:01:55;101786.22;;;3.19;93.07
73341;BME280;61578;52.002;5.468;2022-12-07T01:02:26;101786.22;;;3.17;93.73
73341;BME280;61578;52.002;5.468;2022-12-07T01:02:58;101781.06;;;3.14;93.24
73341;BME280;61578;52.002;5.468;2022-12-07T01:03:37;101783.59;;;3.17;93.33
73341;BME280;61578;52.002;5.468;2022-12-07T01:04:08;101775.75;;;3.16;93.40
73341;BME280;61578;52.002;5.468;2022-12-07T01:04:45;101787.22;;;3.12;93.46
73341;BME280;61578;52.002;5.468;2022-12-07T01:05:21;101769.78;;;3.09;93.32
73341;BME280;61578;52.002;5.468;2022-12-07T01:05:54;101766.44;;;3.00;93.02
73341;BME280;61578;52.002;5.468;2022-12-07T01:06:25;101784.66;;;3.07;92.96
73341;BME280;61578;52.002;5.468;2022-12-07T01:06:58;101782.16;;;3.01;92.97
73341;BME280;61578;52.002;5.468;2022-12-07T01:07:29;101770.84;;;2.97;93.34
73341;BME280;61578;52.002;5.468;2022-12-07T01:08:05;101783.06;;;3.00;93.14
73341;BME280;61578;52.002;5.468;2022-12-07T01:09:27;101739.84;;;2.72;93.09
73341;BME280;61578;52.002;5.468;2022-12-07T01:10:02;101779.72;;;2.90;92.97
73341;BME280;61578;52.002;5.468;2022-12-07T01:11:20;101784.94;;;2.93;93.40
73341;BME280;61578;52.002;5.468;2022-12-07T01:11:53;101786.66;;;2.94;93.29
73341;BME280;61578;52.002;5.468;2022-12-07T01:12:25;101772.63;;;2.95;93.75
73341;BME280;61578;52.002;5.468;2022-12-07T01:13:06;101777.88;;;2.95;93.09
73341;BME280;61578;52.002;5.468;2022-12-07T01:13:37;101780.56;;;2.94;93.17
73341;BME280;61578;52.002;5.468;2022-12-07T01:14:10;101771.94;;;2.86;93.25
73341;BME280;61578;52.002;5.468;2022-12-07T01:14:46;101776.22;;;2.91;93.43
73341;BME280;61578;52.002;5.468;2022-12-07T01:15:18;101781.50;;;2.90;93.14
73341;BME280;61578;52.002;5.468;2022-12-07T01:15:49;101771.13;;;2.82;92.98
73341;BME280;61578;52.002;5.468;2022-12-07T01:16:23;101732.25;;;2.56;92.99
73341;BME280;61578;52.002;5.468;2022-12-07T01:16:56;101783.38;;;2.83;93.13
73341;BME280;61578;52.002;5.468;2022-12-07T01:17:28;101786.91;;;2.81;92.98
73341;BME280;61578;52.002;5.468;2022-12-07T01:18:02;101787.91;;;2.74;92.94
73341;BME280;61578;52.002;5.468;2022-12-07T01:18:38;101797.53;;;2.72;92.74
73341;BME280;61578;52.002;5.468;2022-12-07T01:19:12;101787.09;;;2.69;93.03
73341;BME280;61578;52.002;5.468;2022-12-07T01:19:42;101789.69;;;2.72;93.02
73341;BME280;61578;52.002;5.468;2022-12-07T01:20:13;101792.28;;;2.72;93.28
73341;BME280;61578;52.002;5.468;2022-12-07T01:21:02;101786.31;;;2.64;93.16
73341;BME280;61578;52.002;5.468;2022-12-07T01:21:43;101723.13;;;2.25;93.12
73341;BME280;61578;52.002;5.468;2022-12-07T01:22:16;101794.13;;;2.65;93.02
73341;BME280;61578;52.002;5.468;2022-12-07T01:22:50;101793.28;;;2.65;93.47
73341;BME280;61578;52.002;5.468;2022-12-07T01:23:21;101795.91;;;2.65;93.11
73341;BME280;61578;52.002;5.468;2022-12-07T01:23:53;101794.22;;;2.62;93.16
73341;BME280;61578;52.002;5.468;2022-12-07T01:24:27;101796.84;;;2.61;93.28
73341;BME280;61578;52.002;5.468;2022-12-07T01:24:58;101796.81;;;2.64;93.32
73341;BME280;61578;52.002;5.468;2022-12-07T01:25:42;101796.81;;;2.64;93.31
73341;BME280;61578;52.002;5.468;2022-12-07T01:26:17;101787.28;;;2.56;93.01
73341;BME280;61578;52.002;5.468;2022-12-07T01:26:53;101799.44;;;2.62;93.18
73341;BME280;61578;52.002;5.468;2022-12-07T01:27:58;101792.53;;;2.55;93.09
73341;BME280;61578;52.002;5.468;2022-12-07T01:28:29;101755.41;;;2.30;92.90
73341;BME280;61578;52.002;5.468;2022-12-07T01:29:02;101795.16;;;2.55;92.93
73341;BME280;61578;52.002;5.468;2022-12-07T01:29:38;101783.94;;;2.48;92.28
73341;BME280;61578;52.002;5.468;2022-12-07T01:30:13;101806.56;;;2.54;92.73
73341;BME280;61578;52.002;5.468;2022-12-07T01:30:44;101796.16;;;2.48;93.33
73341;BME280;61578;52.002;5.468;2022-12-07T01:31:29;101784.97;;;2.38;92.49
73341;BME280;61578;52.002;5.468;2022-12-07T01:32:06;101808.34;;;2.52;93.06
73341;BME280;61578;52.002;5.468;2022-12-07T01:32:38;101799.63;;;2.51;93.25
73341;BME280;61578;52.002;5.468;2022-12-07T01:33:15;101788.38;;;2.43;93.41
73341;BME280;61578;52.002;5.468;2022-12-07T01:33:55;101797.88;;;2.52;93.81
73341;BME280;61578;52.002;5.468;2022-12-07T01:34:27;101816.19;;;2.53;93.69
73341;BME280;61578;52.002;5.468;2022-12-07T01:34:57;101804.00;;;2.49;93.50
73341;BME280;61578;52.002;5.468;2022-12-07T01:35:34;101810.09;;;2.53;93.69
73341;BME280;61578;52.002;5.468;2022-12-07T01:36:21;101794.41;;;2.48;93.13
73341;BME280;61578;52.002;5.468;2022-12-07T01:36:53;101806.56;;;2.54;93.47
73341;BME280;61578;52.002;5.468;2022-12-07T01:37:28;101791.78;;;2.48;93.71
73341;BME280;61578;52.002;5.468;2022-12-07T01:38:13;101803.03;;;2.55;93.71
73341;BME280;61578;52.002;5.468;2022-12-07T01:38:59;101786.63;;;2.44;93.52
73341;BME280;61578;52.002;5.468;2022-12-07T01:39:36;101800.41;;;2.56;93.82
73341;BME280;61578;52.002;5.468;2022-12-07T01:40:08;101799.50;;;2.57;93.86
73341;BME280;61578;52.002;5.468;2022-12-07T01:40:40;101800.41;;;2.56;93.73
73341;BME280;61578;52.002;5.468;2022-12-07T01:41:11;101789.91;;;2.56;94.05
73341;BME280;61578;52.002;5.468;2022-12-07T01:41:49;101789.91;;;2.56;93.76
73341;BME280;61578;52.002;5.468;2022-12-07T01:42:22;101791.63;;;2.57;93.60
73341;BME280;61578;52.002;5.468;2022-12-07T01:42:54;101789.06;;;2.54;93.78
73341;BME280;61578;52.002;5.468;2022-12-07T01:43:28;101789.94;;;2.55;93.38
73341;BME280;61578;52.002;5.468;2022-12-07T01:45:52;101790.88;;;2.51;93.52
73341;BME280;61578;52.002;5.468;2022-12-07T01:46:23;101795.22;;;2.53;93.85
73341;BME280;61578;52.002;5.468;2022-12-07T01:47:32;101789.16;;;2.48;94.02
73341;BME280;61578;52.002;5.468;2022-12-07T01:48:09;101798.72;;;2.52;93.94
73341;BME280;61578;52.002;5.468;2022-12-07T01:48:42;101793.50;;;2.52;93.81
73341;BME280;61578;52.002;5.468;2022-12-07T01:49:33;101795.16;;;2.56;94.13
73341;BME280;61578;52.002;5.468;2022-12-07T01:50:09;101774.34;;;2.46;93.27
73341;BME280;61578;52.002;5.468;2022-12-07T01:50:48;101793.34;;;2.60;93.80
73341;BME280;61578;52.002;5.468;2022-12-07T01:51:23;101789.03;;;2.56;93.84
73341;BME280;61578;52.002;5.468;2022-12-07T01:52:13;101785.50;;;2.58;93.48
73341;BME280;61578;52.002;5.468;2022-12-07T01:52:52;101794.28;;;2.56;92.82
73341;BME280;61578;52.002;5.468;2022-12-07T01:53:38;101787.28;;;2.56;93.31
73341;BME280;61578;52.002;5.468;2022-12-07T01:54:15;101741.47;;;2.25;93.11
73341;BME280;61578;52.002;5.468;2022-12-07T01:55:07;101791.69;;;2.54;93.03
73341;BME280;61578;52.002;5.468;2022-12-07T01:55:46;101749.31;;;2.27;93.22
73341;BME280;61578;52.002;5.468;2022-12-07T01:56:26;101790.06;;;2.47;92.93
73341;BME280;61578;52.002;5.468;2022-12-07T01:56:59;101789.16;;;2.48;93.10
73341;BME280;61578;52.002;5.468;2022-12-07T01:57:35;101789.28;;;2.42;92.75
73341;BME280;61578;52.002;5.468;2022-12-07T01:58:44;101791.97;;;2.36;92.86
73341;BME280;61578;52.002;5.468;2022-12-07T01:59:18;101786.72;;;2.38;92.99
73341;BME280;61578;52.002;5.468;2022-12-07T02:00:07;101780.69;;;2.33;93.14
73341;BME280;61578;52.002;5.468;2022-12-07T02:00:41;101785.09;;;2.31;93.13
73341;BME280;61578;52.002;5.468;2022-12-07T02:01:13;101791.13;;;2.34;93.51
73341;BME280;61578;52.002;5.468;2022-12-07T02:01:48;101784.22;;;2.30;93.15
73341;BME280;61578;52.002;5.468;2022-12-07T02:02:51;101782.50;;;2.28;93.81
73341;BME280;61578;52.002;5.468;2022-12-07T02:04:06;101783.31;;;2.33;93.02
73341;BME280;61578;52.002;5.468;2022-12-07T02:04:36;101784.19;;;2.32;93.08
73341;BME280;61578;52.002;5.468;2022-12-07T02:05:07;101773.81;;;2.24;92.95
73341;BME280;61578;52.002;5.468;2022-12-07T02:05:41;101786.84;;;2.30;92.63
73341;BME280;61578;52.002;5.468;2022-12-07T02:06:24;101792.09;;;2.29;92.18
73341;BME280;61578;52.002;5.468;2022-12-07T02:08:00;101786.91;;;2.24;92.55
73341;BME280;61578;52.002;5.468;2022-12-07T02:09:23;101796.59;;;2.20;93.01
73341;BME280;61578;52.002;5.468;2022-12-07T02:09:54;101788.78;;;2.16;92.81
73341;BME280;61578;52.002;5.468;2022-12-07T02:10:27;101735.91;;;1.91;92.68
73341;BME280;61578;52.002;5.468;2022-12-07T02:11:02;101788.75;;;2.19;92.82
73341;BME280;61578;52.002;5.468;2022-12-07T02:11:44;101788.75;;;2.19;93.36
73341;BME280;61578;52.002;5.468;2022-12-07T02:12:16;101731.59;;;1.85;93.30
73341;BME280;61578;52.002;5.468;2022-12-07T02:13:04;101780.13;;;2.11;93.21
73341;BME280;61578;52.002;5.468;2022-12-07T02:15:03;101785.31;;;2.14;93.10
73341;BME280;61578;52.002;5.468;2022-12-07T02:16:47;101787.97;;;2.12;93.32
73341;BME280;61578;52.002;5.468;2022-12-07T02:24:58;101798.59;;;2.02;92.59
73341;BME280;61578;52.002;5.468;2022-12-07T02:29:10;101799.53;;;1.95;92.81
73341;BME280;61578;52.002;5.468;2022-12-07T02:30:05;101744.16;;;1.62;92.60
73341;BME280;61578;52.002;5.468;2022-12-07T02:30:46;101797.84;;;1.92;93.29
73341;BME280;61578;52.002;5.468;2022-12-07T02:31:30;101754.56;;;1.65;93.11
73341;BME280;61578;52.002;5.468;2022-12-07T02:33:10;101818.81;;;1.92;93.06
73341;BME280;61578;52.002;5.468;2022-12-07T02:33:57;101796.94;;;1.95;93.45
73341;BME280;61578;52.002;5.468;2022-12-07T02:35:07;101802.13;;;1.98;93.61
73341;BME280;61578;52.002;5.468;2022-12-07T02:36:07;101783.91;;;1.92;93.81
73341;BME280;61578;52.002;5.468;2022-12-07T02:37:10;101792.41;;;2.06;94.22
73341;BME280;61578;52.002;5.468;2022-12-07T02:39:16;101795.75;;;2.18;94.49
73341;BME280;61578;52.002;5.468;2022-12-07T02:40:06;101751.53;;;1.96;94.14
73341;BME280;61578;52.002;5.468;2022-12-07T02:41:29;101793.81;;;2.31;94.83
73341;BME280;61578;52.002;5.468;2022-12-07T02:42:24;101794.59;;;2.35;94.60
73341;BME280;61578;52.002;5.468;2022-12-07T02:43:18;101794.53;;;2.41;94.79
73341;BME280;61578;52.002;5.468;2022-12-07T02:44:01;101798.91;;;2.40;95.32
73341;BME280;61578;52.002;5.468;2022-12-07T02:44:47;101790.91;;;2.48;94.77
73341;BME280;61578;52.002;5.468;2022-12-07T02:45:22;101784.75;;;2.52;94.73
73341;BME280;61578;52.002;5.468;2022-12-07T02:46:08;101798.59;;;2.62;95.07
73341;BME280;61578;52.002;5.468;2022-12-07T02:47:02;101789.84;;;2.61;94.62
73341;BME280;61578;52.002;5.468;2022-12-07T02:47:41;101780.97;;;2.68;94.86
73341;BME280;61578;52.002;5.468;2022-12-07T02:48:28;101786.97;;;2.76;94.71
73341;BME280;61578;52.002;5.468;2022-12-07T02:49:02;101783.44;;;2.79;94.77
73341;BME280;61578;52.002;5.468;2022-12-07T02:49:36;101782.53;;;2.80;94.21
73341;BME280;61578;52.002;5.468;2022-12-07T02:50:11;101743.72;;;2.51;94.29
73341;BME280;61578;52.002;5.468;2022-12-07T02:50:48;101789.53;;;2.81;94.39
73341;BME280;61578;52.002;5.468;2022-12-07T02:51:30;101786.00;;;2.82;93.93
73341;BME280;61578;52.002;5.468;2022-12-07T02:52:03;101797.38;;;2.82;93.77
73341;BME280;61578;52.002;5.468;2022-12-07T02:52:37;101785.03;;;2.87;93.90
73341;BME280;61578;52.002;5.468;2022-12-07T02:54:24;101786.78;;;2.87;93.46
73341;BME280;61578;52.002;5.468;2022-12-07T02:54:54;101772.91;;;2.82;93.94
73341;BME280;61578;52.002;5.468;2022-12-07T02:55:40;101792.91;;;2.86;93.66
73341;BME280;61578;52.002;5.468;2022-12-07T02:59:59;101782.53;;;2.81;93.31
73341;BME280;61578;52.002;5.468;2022-12-07T03:03:30;101784.19;;;2.85;93.61
73341;BME280;61578;52.002;5.468;2022-12-07T03:04:45;101788.59;;;2.83;93.38
73341;BME280;61578;52.002;5.468;2022-12-07T03:06:53;101776.38;;;2.84;93.31
73341;BME280;61578;52.002;5.468;2022-12-07T03:09:03;101781.56;;;2.85;93.19
73341;BME280;61578;52.002;5.468;2022-12-07T03:11:48;101766.78;;;2.81;93.45
73341;BME280;61578;52.002;5.468;2022-12-07T03:13:02;101773.66;;;2.87;93.60
73341;BME280;61578;52.002;5.468;2022-12-07T03:15:18;101779.72;;;2.92;93.86
73341;BME280;61578;52.002;5.468;2022-12-07T03:17:35;101781.50;;;2.88;93.37
73341;BME280;61578;52.002;5.468;2022-12-07T03:18:20;101760.56;;;2.85;93.20
73341;BME280;61578;52.002;5.468;2022-12-07T03:19:10;101779.72;;;2.90;92.81
73341;BME280;61578;52.002;5.468;2022-12-07T03:19:51;101777.13;;;2.89;93.28
73341;BME280;61578;52.002;5.468;2022-12-07T03:20:34;101777.16;;;2.87;93.22
73341;BME280;61578;52.002;5.468;2022-12-07T03:21:15;101720.09;;;2.52;93.05
73341;BME280;61578;52.002;5.468;2022-12-07T03:22:02;101779.91;;;2.81;93.35
73341;BME280;61578;52.002;5.468;2022-12-07T03:22:43;101779.06;;;2.79;93.16
73341;BME280;61578;52.002;5.468;2022-12-07T03:23:25;101781.63;;;2.82;93.57
73341;BME280;61578;52.002;5.468;2022-12-07T03:24:00;101770.25;;;2.83;93.79
73341;BME280;61578;52.002;5.468;2022-12-07T03:24:50;101774.63;;;2.83;93.56
73341;BME280;61578;52.002;5.468;2022-12-07T03:25:26;101780.66;;;2.86;93.39
73341;BME280;61578;52.002;5.468;2022-12-07T03:26:02;101768.50;;;2.82;93.76
73341;BME280;61578;52.002;5.468;2022-12-07T03:26:38;101704.53;;;2.43;93.69
73341;BME280;61578;52.002;5.468;2022-12-07T03:27:26;101779.72;;;2.90;94.22
73341;BME280;61578;52.002;5.468;2022-12-07T03:28:07;101783.19;;;2.92;94.07
73341;BME280;61578;52.002;5.468;2022-12-07T03:28:51;101789.31;;;2.93;94.09
73341;BME280;61578;52.002;5.468;2022-12-07T03:29:34;101798.03;;;2.95;94.05
73341;BME280;61578;52.002;5.468;2022-12-07T03:30:19;101797.09;;;2.97;94.29
73341;BME280;61578;52.002;5.468;2022-12-07T03:31:02;101792.72;;;2.98;94.32
73341;BME280;61578;52.002;5.468;2022-12-07T03:31:47;101788.44;;;2.94;94.33
73341;BME280;61578;52.002;5.468;2022-12-07T03:35:45;101783.78;;;3.08;94.71
73341;BME280;61578;52.002;5.468;2022-12-07T03:37:49;101774.81;;;3.20;95.11
73341;BME280;61578;52.002;5.468;2022-12-07T03:38:33;101783.50;;;3.23;94.94
73341;BME280;61578;52.002;5.468;2022-12-07T03:39:16;101782.56;;;3.26;94.25
73341;BME280;61578;52.002;5.468;2022-12-07T03:41:12;101772.06;;;3.26;94.11
73341;BME280;61578;52.002;5.468;2022-12-07T03:41:54;101772.06;;;3.26;93.82
73341;BME280;61578;52.002;5.468;2022-12-07T03:42:29;101766.78;;;3.27;94.02
73341;BME280;61578;52.002;5.468;2022-12-07T03:43:06;101733.16;;;3.05;94.11
73341;BME280;61578;52.002;5.468;2022-12-07T03:43:41;101778.13;;;3.31;94.14
73341;BME280;61578;52.002;5.468;2022-12-07T03:44:20;101717.47;;;3.00;93.97
73341;BME280;61578;52.002;5.468;2022-12-07T03:44:53;101760.63;;;3.30;94.24
73341;BME280;61578;52.002;5.468;2022-12-07T03:45:56;101757.94;;;3.35;94.11
73341;BME280;61578;52.002;5.468;2022-12-07T03:48:05;101760.59;;;3.31;93.61
73341;BME280;61578;52.002;5.468;2022-12-07T03:49:09;101763.22;;;3.31;93.67
73341;BME280;61578;52.002;5.468;2022-12-07T03:50:50;101758.00;;;3.30;93.24
73341;BME280;61578;52.002;5.468;2022-12-07T03:51:21;101755.44;;;3.27;93.18
73341;BME280;61578;52.002;5.468;2022-12-07T03:53:35;101711.38;;;2.98;93.29
73341;BME280;61578;52.002;5.468;2022-12-07T03:54:28;101757.31;;;3.20;93.02
73341;BME280;61578;52.002;5.468;2022-12-07T03:55:19;101749.53;;;3.16;93.35
73341;BME280;61578;52.002;5.468;2022-12-07T03:56:04;101755.72;;;3.13;93.41
73341;BME280;61578;52.002;5.468;2022-12-07T03:56:40;101754.78;;;3.16;93.40
73341;BME280;61578;52.002;5.468;2022-12-07T03:57:23;101748.69;;;3.15;94.01
73341;BME280;61578;52.002;5.468;2022-12-07T03:58:03;101762.69;;;3.14;93.42
73341;BME280;61578;52.002;5.468;2022-12-07T03:58:44;101746.97;;;3.14;93.35
73341;BME280;61578;52.002;5.468;2022-12-07T03:59:17;101699.38;;;2.86;93.21
73341;BME280;61578;52.002;5.468;2022-12-07T03:59:56;101757.44;;;3.14;92.82
73341;BME280;61578;52.002;5.468;2022-12-07T04:00:29;101765.31;;;3.14;93.23
73341;BME280;61578;52.002;5.468;2022-12-07T04:01:03;101758.34;;;3.13;93.44
73341;BME280;61578;52.002;5.468;2022-12-07T04:01:34;101763.59;;;3.13;93.26
73341;BME280;61578;52.002;5.468;2022-12-07T04:02:12;101676.22;;;2.64;93.12
73341;BME280;61578;52.002;5.468;2022-12-07T04:02:44;101758.38;;;3.10;93.38
73341;BME280;61578;52.002;5.468;2022-12-07T04:03:15;101767.13;;;3.11;93.26
73341;BME280;61578;52.002;5.468;2022-12-07T04:03:50;101758.38;;;3.10;93.27
73341;BME280;61578;52.002;5.468;2022-12-07T04:04:24;101689.19;;;2.70;93.28
73341;BME280;61578;52.002;5.468;2022-12-07T04:04:59;101760.97;;;3.13;93.18
73341;BME280;61578;52.002;5.468;2022-12-07T04:05:32;101747.91;;;3.09;93.07
73341;BME280;61578;52.002;5.468;2022-12-07T04:06:03;101759.25;;;3.11;92.81
73341;BME280;61578;52.002;5.468;2022-12-07T04:06:35;101745.41;;;3.04;92.73
73341;BME280;61578;52.002;5.468;2022-12-07T04:07:09;101703.16;;;2.72;92.62
73341;BME280;61578;52.002;5.468;2022-12-07T04:07:47;101743.66;;;3.03;92.74
73341;BME280;61578;52.002;5.468;2022-12-07T04:08:22;101705.75;;;2.73;92.99
73341;BME280;61578;52.002;5.468;2022-12-07T04:08:57;101747.28;;;2.96;92.73
73341;BME280;61578;52.002;5.468;2022-12-07T04:09:34;101706.72;;;2.68;92.21
73341;BME280;61578;52.002;5.468;2022-12-07T04:10:11;101754.38;;;2.91;92.17
73341;BME280;61578;52.002;5.468;2022-12-07T04:10:44;101747.47;;;2.85;92.40
73341;BME280;61578;52.002;5.468;2022-12-07T04:11:16;101750.09;;;2.85;92.44
73341;BME280;61578;52.002;5.468;2022-12-07T04:11:52;101764.13;;;2.83;92.81
73341;BME280;61578;52.002;5.468;2022-12-07T04:12:24;101754.44;;;2.86;92.53
73341;BME280;61578;52.002;5.468;2022-12-07T04:12:58;101755.44;;;2.81;92.92
73341;BME280;61578;52.002;5.468;2022-12-07T04:13:31;101765.00;;;2.83;92.72
73341;BME280;61578;52.002;5.468;2022-12-07T04:14:21;101766.75;;;2.83;93.39